Time;durP1;ratioP1;P1;durP2;ratioP2;P2;SDS_P1;SDS_P2;PMS_P1;PMS_P2;Temp;Humidity;BMP_temperature;BMP_pressure;BME280_temperature;BME280_humidity;BME280_pressure;Samples;Min_cycle;Max_cycle;Signal;HPM_P1;HPM_P2
2020/12/24 00:00:50;;;;;;;1.30;0.70;;;;;;;;;;5026412;28;20041;-78
2020/12/24 00:03:16;;;;;;;3.85;0.57;;;;;;;;;;5026601;28;20021;-78
2020/12/24 00:05:42;;;;;;;1.52;0.57;;;;;;;;;;5025418;28;20468;-78
2020/12/24 00:08:08;;;;;;;1.25;0.70;;;;;;;;;;5033201;28;20087;-78
2020/12/24 00:10:34;;;;;;;0.95;0.70;;;;;;;;;;5008388;28;20032;-77
2020/12/24 00:13:00;;;;;;;2.97;0.63;;;;;;;;;;5020809;28;20053;-78
2020/12/24 00:15:26;;;;;;;0.85;0.50;;;;;;;;;;5014984;28;20060;-78
2020/12/24 00:17:52;;;;;;;0.88;0.50;;;;;;;;;;5012958;28;20583;-78
2020/12/24 00:20:18;;;;;;;1.48;0.57;;;;;;;;;;5007607;28;20445;-78
2020/12/24 00:22:44;;;;;;;2.22;0.40;;;;;;;;;;5007577;28;20507;-78
2020/12/24 00:25:10;;;;;;;2.85;0.47;;;;;;;;;;5006350;28;20116;-78
2020/12/24 00:27:36;;;;;;;0.93;0.50;;;;;;;;;;4989869;28;20022;-78
2020/12/24 00:30:02;;;;;;;1.98;0.60;;;;;;;;;;5007140;28;20105;-78
2020/12/24 00:32:29;;;;;;;1.80;0.65;;;;;;;;;;5007521;28;20021;-77
2020/12/24 00:34:55;;;;;;;1.20;0.45;;;;;;;;;;5006874;28;20026;-77
2020/12/24 00:37:21;;;;;;;1.52;0.57;;;;;;;;;;5007792;28;20030;-78
2020/12/24 00:39:47;;;;;;;2.25;0.70;;;;;;;;;;5007523;28;20030;-79
2020/12/24 00:42:13;;;;;;;2.28;0.70;;;;;;;;;;5007367;28;20405;-78
2020/12/24 00:44:39;;;;;;;1.25;0.73;;;;;;;;;;5006378;28;20030;-78
2020/12/24 00:47:05;;;;;;;1.95;0.60;;;;;;;;;;5008873;28;20112;-78
2020/12/24 00:49:31;;;;;;;0.40;0.40;;;;;;;;;;5011470;28;20025;-76
2020/12/24 00:51:57;;;;;;;1.30;0.50;;;;;;;;;;5011260;28;20033;-77
2020/12/24 00:54:23;;;;;;;1.65;0.50;;;;;;;;;;4994621;28;20116;-77
2020/12/24 00:56:49;;;;;;;1.23;0.50;;;;;;;;;;5050505;28;20476;-78
2020/12/24 00:59:15;;;;;;;1.38;0.70;;;;;;;;;;5050536;28;20036;-78
2020/12/24 01:01:41;;;;;;;3.13;0.63;;;;;;;;;;5050924;28;20021;-78
2020/12/24 01:04:07;;;;;;;0.98;0.50;;;;;;;;;;5032088;28;20056;-78
2020/12/24 01:06:33;;;;;;;0.50;0.50;;;;;;;;;;5050253;28;20021;-78
2020/12/24 01:08:59;;;;;;;2.38;0.60;;;;;;;;;;5050520;28;20414;-79
2020/12/24 01:11:29;;;;;;;1.55;0.60;;;;;;;;;;5050553;28;20478;-79
2020/12/24 01:13:55;;;;;;;0.43;0.38;;;;;;;;;;5050725;28;20104;-79
2020/12/24 01:16:21;;;;;;;2.03;0.57;;;;;;;;;;5032471;28;20025;-80
2020/12/24 01:18:47;;;;;;;1.88;0.70;;;;;;;;;;5032741;28;20569;-78
2020/12/24 01:21:13;;;;;;;3.63;0.68;;;9.20;99.90;;;;;;5032646;28;20025;-78
2020/12/24 01:23:39;;;;;;;1.88;0.60;;;8.50;99.90;;;;;;5032549;28;20821;-77
2020/12/24 01:26:08;;;;;;;2.10;0.70;;;8.40;99.90;;;;;;5031988;28;20037;-76
2020/12/24 01:28:34;;;;;;;3.08;0.70;;;8.30;99.90;;;;;;5032447;28;20024;-77
2020/12/24 01:31:00;;;;;;;2.58;0.60;;;8.30;99.90;;;;;;5050453;28;20283;-78
2020/12/24 01:33:27;;;;;;;1.10;0.52;;;8.30;99.90;;;;;;5050257;28;20529;-77
2020/12/24 01:35:52;;;;;;;2.60;0.47;;;8.30;99.90;;;;;;5049653;28;20067;-76
2020/12/24 01:38:18;;;;;;;0.70;0.35;;;8.30;99.90;;;;;;5032065;28;20071;-79
2020/12/24 01:40:44;;;;;;;0.95;0.50;;;8.20;99.90;;;;;;5029894;28;20032;-76
2020/12/24 01:43:10;;;;;;;3.60;0.60;;;8.20;99.90;;;;;;5028631;28;20067;-77
2020/12/24 01:45:36;;;;;;;2.60;0.60;;;8.20;99.90;;;;;;5029707;28;20457;-76
2020/12/24 01:48:02;;;;;;;1.50;0.60;;;8.20;99.90;;;;;;5029982;28;20017;-77
2020/12/24 01:50:27;;;;;;;1.50;0.55;;;8.10;99.90;;;;;;5032151;28;20053;-80
2020/12/24 01:52:56;;;;;;;3.40;0.70;;;;;;;;;;5017362;28;20045;-83
2020/12/24 02:13:24;;;;;;;3.80;1.20;;;;;;;;;;4993456;28;20042;-84
2020/12/24 02:15:50;;;;;;;1.80;0.90;;;;;;;;;;5010045;28;20030;-82
2020/12/24 02:18:16;;;;;;;3.90;0.73;;;;;;;;;;5011866;28;20054;-81
2020/12/24 02:20:43;;;;;;;1.33;0.60;;;;;;;;;;4992527;28;20027;-80
2020/12/24 02:23:09;;;;;;;2.65;0.70;;;;;;;;;;4991206;28;20034;-79
2020/12/24 02:25:35;;;;;;;2.50;0.60;;;;;;;;;;4989231;28;20125;-80
2020/12/24 02:28:01;;;;;;;1.73;0.60;;;;;;;;;;4988266;28;20090;-78
2020/12/24 02:30:27;;;;;;;4.35;1.00;;;;;;;;;;4989601;28;20469;-77
2020/12/24 02:32:54;;;;;;;1.25;0.57;;;;;;;;;;4989706;28;20022;-78
2020/12/24 02:35:20;;;;;;;2.17;0.60;;;;;;;;;;4981814;28;20630;-77
2020/12/24 02:37:46;;;;;;;3.50;0.63;;;;;;;;;;4970110;28;20089;-77
2020/12/24 02:40:12;;;;;;;3.60;0.60;;;;;;;;;;4969084;28;20037;-77
2020/12/24 02:42:38;;;;;;;1.13;0.50;;;;;;;;;;4970103;28;20027;-77
2020/12/24 02:45:05;;;;;;;3.05;0.63;;;;;;;;;;4969774;28;20033;-77
2020/12/24 02:47:31;;;;;;;1.45;0.57;;;;;;;;;;4970163;28;20035;-77
2020/12/24 02:49:57;;;;;;;1.27;0.70;;;;;;;;;;4970090;28;20094;-77
2020/12/24 02:52:24;;;;;;;3.08;0.80;;;;;;;;;;4968551;28;20035;-77
2020/12/24 02:54:50;;;;;;;2.53;0.60;;;;;;;;;;4969630;28;20026;-76
2020/12/24 02:57:16;;;;;;;2.20;0.70;;;;;;;;;;4969788;28;20034;-77
2020/12/24 02:59:42;;;;;;;1.40;0.60;;;;;;;;;;4970057;28;20054;-77
2020/12/24 03:02:08;;;;;;;4.47;0.60;;;;;;;;;;4971650;28;20425;-77
2020/12/24 03:04:34;;;;;;;0.85;0.60;;;;;;;;;;4971930;28;20051;-77
2020/12/24 03:07:01;;;;;;;3.67;0.73;;;;;;;;;;4971084;28;20023;-76
2020/12/24 03:09:27;;;;;;;1.98;0.70;;;;;;;;;;4972485;28;20085;-77
2020/12/24 03:11:53;;;;;;;1.02;0.50;;;;;;;;;;4970896;28;20699;-77
2020/12/24 03:14:19;;;;;;;0.60;0.40;;;;;;;;;;4971936;28;20755;-77
2020/12/24 03:16:48;;;;;;;2.72;0.70;;;;;;;;;;4970786;28;20030;-78
2020/12/24 03:19:14;;;;;;;3.17;0.70;;;;;;;;;;4971076;28;20022;-77
2020/12/24 03:21:41;;;;;;;1.70;0.80;;;;;;;;;;4970840;28;20018;-76
2020/12/24 03:24:07;;;;;;;1.90;0.68;;;;;;;;;;4971971;28;20039;-77
2020/12/24 03:26:33;;;;;;;3.00;0.60;;;;;;;;;;4970696;28;20027;-76
2020/12/24 03:28:59;;;;;;;1.38;0.60;;;;;;;;;;4972024;28;20469;-77
2020/12/24 03:31:26;;;;;;;2.10;0.40;;;;;;;;;;4970725;28;20053;-77
2020/12/24 03:33:53;;;;;;;2.38;0.70;;;;;;;;;;4971876;28;20027;-77
2020/12/24 03:36:19;;;;;;;2.05;0.60;;;;;;;;;;4971588;28;20031;-77
2020/12/24 03:38:45;;;;;;;2.00;0.57;;;;;;;;;;4970452;28;20031;-77
2020/12/24 03:41:11;;;;;;;1.48;0.60;;;;;;;;;;4971825;28;20023;-77
2020/12/24 03:43:38;;;;;;;3.30;0.70;;;;;;;;;;4971579;28;20030;-77
2020/12/24 03:46:04;;;;;;;1.98;0.60;;;;;;;;;;4970296;28;20147;-77
2020/12/24 03:48:30;;;;;;;6.10;0.77;;;;;;;;;;4970237;28;20046;-77
2020/12/24 03:50:56;;;;;;;1.55;0.70;;;;;;;;;;4971577;28;20105;-77
2020/12/24 03:53:23;;;;;;;2.35;0.80;;;;;;;;;;4970189;28;20066;-77
2020/12/24 03:55:49;;;;;;;3.55;0.55;;;;;;;;;;4969825;28;20125;-77
2020/12/24 03:58:15;;;;;;;2.47;0.73;;;;;;;;;;4971512;28;20022;-77
2020/12/24 04:00:41;;;;;;;2.53;0.80;;;;;;;;;;4971547;28;20045;-77
2020/12/24 04:03:07;;;;;;;1.90;0.55;;;;;;;;;;4980551;28;20018;-77
2020/12/24 04:05:33;;;;;;;2.35;0.65;;;;;;;;;;4998826;28;20892;-77
2020/12/24 04:07:59;;;;;;;2.30;0.60;;;;;;;;;;5008417;28;20900;-77
2020/12/24 04:10:25;;;;;;;2.25;0.50;;;;;;;;;;5008528;28;20033;-77
2020/12/24 04:12:51;;;;;;;1.40;0.40;;;;;;;;;;5007143;28;20038;-79
2020/12/24 04:15:17;;;;;;;3.50;0.73;;;;;;;;;;5007458;28;20448;-80
2020/12/24 04:17:43;;;;;;;2.10;0.70;;;;;;;;;;5008314;28;20041;-77
2020/12/24 04:20:09;;;;;;;2.15;0.70;;;;;;;;;;5007832;28;20034;-77
2020/12/24 04:22:35;;;;;;;1.67;0.50;;;;;;;;;;5009598;28;20022;-77
2020/12/24 04:25:01;;;;;;;2.30;0.50;;;;;;;;;;5011325;28;20092;-77
2020/12/24 04:27:29;;;;;;;3.40;0.50;;;;;;;;;;5012163;28;20097;-77
2020/12/24 04:29:55;;;;;;;1.33;0.35;;;;;;;;;;5011774;28;20056;-77
2020/12/24 04:32:21;;;;;;;1.00;0.38;;;;;;;;;;5011246;28;20113;-78
2020/12/24 04:34:47;;;;;;;1.25;0.50;;;;;;;;;;5012206;28;20026;-77
2020/12/24 04:37:13;;;;;;;0.63;0.50;;;;;;;;;;5011582;28;20029;-77
2020/12/24 04:39:39;;;;;;;1.05;0.55;;;;;;;;;;5012715;28;20034;-77
2020/12/24 04:42:05;;;;;;;1.73;0.50;;;;;;;;;;5012474;28;20496;-77
2020/12/24 04:44:32;;;;;;;4.13;0.50;;;;;;;;;;5010895;28;20087;-77
2020/12/24 04:46:58;;;;;;;0.95;0.50;;;;;;;;;;5011237;28;20064;-78
2020/12/24 04:49:25;;;;;;;1.48;0.50;;;;;;;;;;5011218;28;20022;-79
2020/12/24 04:51:51;;;;;;;2.72;0.65;;;;;;;;;;5010387;28;20024;-79
2020/12/24 04:54:18;;;;;;;2.45;0.60;;;;;;;;;;5010628;28;20509;-79
2020/12/24 04:56:44;;;;;;;1.48;0.50;;;;;;;;;;5009971;28;20121;-78
2020/12/24 04:59:11;;;;;;;3.42;0.73;;;;;;;;;;5009757;28;20026;-79
2020/12/24 05:01:37;;;;;;;4.25;0.90;;;;;;;;;;5010994;28;20105;-79
2020/12/24 05:04:04;;;;;;;3.67;0.60;;;;;;;;;;5009270;28;20044;-78
2020/12/24 05:06:30;;;;;;;2.70;0.70;;;;;;;;;;5010790;28;20168;-80
2020/12/24 05:08:57;;;;;;;1.77;0.60;;;;;;;;;;5010917;28;20032;-79
2020/12/24 05:11:28;;;;;;;1.80;0.70;;;;;;;;;;5011190;28;20459;-78
2020/12/24 05:13:54;;;;;;;4.45;0.80;;;;;;;;;;5011966;28;20097;-79
2020/12/24 05:16:20;;;;;;;2.33;0.60;;;;;;;;;;5009740;28;20480;-80
2020/12/24 05:18:46;;;;;;;2.17;0.60;;;;;;;;;;5011662;28;20125;-79
2020/12/24 05:21:13;;;;;;;4.10;0.70;;;;;;;;;;5010532;28;20025;-79
2020/12/24 05:23:39;;;;;;;2.08;0.57;;;;;;;;;;5012084;28;20026;-79
2020/12/24 05:26:19;;;;;;;5.05;0.77;;;;;;;;;;5009145;28;20072;-78
2020/12/24 05:28:45;;;;;;;4.90;0.95;;;;;;;;;;5010755;28;20022;-78
2020/12/24 05:31:11;;;;;;;2.35;0.70;;;;;;;;;;5010553;28;20072;-78
2020/12/24 05:33:37;;;;;;;1.77;0.60;;;;;;;;;;5008029;28;20412;-78
2020/12/24 05:36:19;;;;;;;4.07;0.70;;;;;;;;;;5010561;28;20030;-79
2020/12/24 05:38:46;;;;;;;2.03;0.40;;;;;;;;;;5011954;28;20018;-78
2020/12/24 05:41:31;;;;;;;2.42;0.60;;;;;;;;;;5010226;28;20071;-78
2020/12/24 05:44:01;;;;;;;7.47;1.13;;;;;;;;;;5010310;28;20056;-78
2020/12/24 05:46:28;;;;;;;3.30;0.90;;;;;;;;;;5011914;28;20029;-78
2020/12/24 05:48:54;;;;;;;2.95;1.00;;;;;;;;;;5012084;28;20045;-78
2020/12/24 05:51:20;;;;;;;2.95;0.90;;;;;;;;;;5011490;28;20069;-77
2020/12/24 05:53:47;;;;;;;3.33;0.73;;;;;;;;;;5010655;28;20026;-77
2020/12/24 05:56:23;;;;;;;4.55;0.82;;;;;;;;;;5008832;28;20480;-78
2020/12/24 05:58:51;;;;;;;2.70;0.90;;;;;;;;;;5010651;28;20030;-78
2020/12/24 06:01:18;;;;;;;2.70;0.93;;;;;;;;;;5008793;28;20044;-78
2020/12/24 06:03:59;;;;;;;3.30;0.82;;;;;;;;;;5009307;28;20036;-78
2020/12/24 06:06:35;;;;;;;3.00;0.85;;;;;;;;;;5011643;28;20033;-79
2020/12/24 06:09:06;;;;;;;3.58;0.77;;;;;;;;;;5009243;28;20026;-78
2020/12/24 06:11:43;;;;;;;5.07;1.00;;;;;;;;;;5010936;28;20392;-78
2020/12/24 06:14:13;;;;;;;4.55;1.00;;;;;;;;;;5010396;28;20055;-78
2020/12/24 06:16:40;;;;;;;4.20;0.90;;;;;;;;;;5008751;28;20123;-78
2020/12/24 06:19:06;;;;;;;5.07;0.90;;;;;;;;;;5010066;28;20022;-78
2020/12/24 06:21:34;;;;;;;3.20;0.70;;;;;;;;;;5009744;28;20512;-78
2020/12/24 06:24:00;;;;;;;5.32;1.00;;;;;;;;;;5009556;28;20029;-78
2020/12/24 06:26:31;;;;;;;3.50;0.90;;;;;;;;;;5007941;28;20401;-78
2020/12/24 06:28:59;;;;;;;5.95;1.02;;;;;;;;;;5010246;28;20026;-78
2020/12/24 06:31:26;;;;;;;3.90;1.00;;;;;;;;;;5011267;28;20064;-77
2020/12/24 06:33:52;;;;;;;5.05;1.02;;;;;;;;;;5008369;28;20030;-78
2020/12/24 06:36:30;;;;;;;5.28;1.35;;;;;;;;;;5008145;28;20037;-76
2020/12/24 06:38:56;;;;;;;6.47;1.38;;;;;;;;;;5009663;28;20029;-79
2020/12/24 06:41:28;;;;;;;6.32;1.40;;;;;;;;;;5009476;28;20030;-78
2020/12/24 06:43:54;;;;;;;5.45;1.13;;;;;;;;;;5009299;28;20030;-77
2020/12/24 06:46:20;;;;;;;4.85;1.20;;;;;;;;;;5007152;28;20116;-78
2020/12/24 06:49:03;;;;;;;3.85;0.95;;;;;;;;;;5008066;28;20053;-78
2020/12/24 06:51:49;;;;;;;6.22;1.25;;;;;;;;;;5009368;28;20026;-77
2020/12/24 06:54:22;;;;;;;6.07;1.20;;;;;;;;;;5009541;28;20129;-78
2020/12/24 06:56:48;;;;;;;5.50;1.08;;;;;;;;;;5010226;28;20022;-78
2020/12/24 06:59:21;;;;;;;5.35;1.25;;;;;;;;;;5010770;28;20034;-77
2020/12/24 07:02:01;;;;;;;8.20;1.30;;;;;;;;;;5008179;28;20022;-78
2020/12/24 07:04:40;;;;;;;6.63;1.60;;;;;;;;;;5006795;28;20053;-78
2020/12/24 07:07:06;;;;;;;6.38;1.40;;;;;;;;;;5008920;28;20037;-80
2020/12/24 07:09:32;;;;;;;8.75;1.58;;;;;;;;;;5010084;28;20022;-79
2020/12/24 07:11:59;;;;;;;5.78;1.25;;;;;;;;;;5010652;28;20040;-78
2020/12/24 07:14:25;;;;;;;7.00;1.25;;;;;;;;;;5009595;28;20026;-79
2020/12/24 07:16:54;;;;;;;9.60;1.48;;;;;;;;;;5009772;28;20022;-78
2020/12/24 07:19:20;;;;;;;5.40;1.25;;;;;;;;;;5009533;28;20025;-78
2020/12/24 07:21:53;;;;;;;6.13;1.30;;;;;;;;;;5009131;28;20109;-78
2020/12/24 07:24:29;;;;;;;7.32;1.17;;;;;;;;;;5008087;28;20096;-78
2020/12/24 07:27:00;;;;;;;8.52;1.45;;;;;;;;;;5008101;28;20025;-78
2020/12/24 07:29:28;;;;;;;6.45;1.08;;;;;;;;;;5008272;28;20030;-77
2020/12/24 07:31:55;;;;;;;9.98;1.38;;;;;;;;;;5009848;28;20536;-79
2020/12/24 07:34:28;;;;;;;6.45;1.13;;;;;;;;;;5008126;28;20034;-79
2020/12/24 07:36:54;;;;;;;5.38;1.42;;;;;;;;;;5009129;28;20030;-79
2020/12/24 07:39:20;;;;;;;8.35;1.25;;;;;;;;;;5010371;28;20105;-79
2020/12/24 07:41:47;;;;;;;6.28;1.20;;;;;;;;;;5008449;28;20456;-80
2020/12/24 07:44:13;;;;;;;9.57;1.33;;;;;;;;;;5007610;28;20022;-79
2020/12/24 07:46:39;;;;;;;5.90;1.17;;;;;;;;;;5008811;28;20034;-79
2020/12/24 07:49:06;;;;;;;5.80;1.20;;;;;;;;;;5009477;28;20022;-78
2020/12/24 07:51:32;;;;;;;7.63;1.45;;;;;;;;;;5008681;28;20026;-79
2020/12/24 07:54:05;;;;;;;6.55;1.10;;;;;;;;;;5010087;28;20026;-80
2020/12/24 07:56:32;;;;;;;6.57;1.30;;;;;;;;;;5009687;28;20041;-80
2020/12/24 07:59:02;;;;;;;4.82;1.20;;;;;;;;;;5010302;28;20026;-79
2020/12/24 08:01:28;;;;;;;6.82;1.05;;;;;;;;;;5008652;28;20030;-79
2020/12/24 08:04:01;;;;;;;2.33;0.80;;;;;;;;;;5010120;28;20361;-79
2020/12/24 08:06:27;;;;;;;3.10;0.90;;;;;;;;;;5007886;28;20487;-80
2020/12/24 08:08:54;;;;;;;2.58;0.80;;;;;;;;;;5006984;28;20477;-79
2020/12/24 08:11:20;;;;;;;4.32;1.00;;;;;;;;;;5008304;28;20041;-79
2020/12/24 08:13:46;;;;;;;3.25;0.80;;;;;;;;;;5009046;28;20032;-79
2020/12/24 08:16:13;;;;;;;5.78;1.13;;;;;;;;;;5008815;28;20026;-80
2020/12/24 08:18:46;;;;;;;6.77;1.20;;;;;;;;;;5008294;28;20030;-78
2020/12/24 08:21:21;;;;;;;6.50;1.10;;;;;;;;;;5008020;28;20354;-78
2020/12/24 08:23:52;;;;;;;4.50;1.00;;;;;;;;;;5013543;28;20030;-78
2020/12/24 08:26:19;;;;;;;4.40;1.02;;;7.20;99.90;;;;;;5009107;28;20033;-79
2020/12/24 08:28:57;;;;;;;6.25;1.95;;;6.20;99.90;;;;;;5006743;28;20026;-78
2020/12/24 08:31:25;;;;;;;5.07;0.80;;;6.10;99.90;;;;;;5007762;28;20040;-77
2020/12/24 08:33:53;;;;;;;9.07;0.98;;;6.00;99.90;;;;;;5007248;28;20558;-77
2020/12/24 08:36:21;;;;;;;3.70;0.80;;;6.00;99.90;;;;;;5007123;28;20076;-76
2020/12/24 08:38:48;;;;;;;3.53;1.08;;;;;;;;;;5006404;28;21014;-77
2020/12/24 08:41:24;;;;;;;3.60;0.90;;;;;;;;;;5007717;28;20080;-78
2020/12/24 08:43:56;;;;;;;4.70;1.00;;;;;;;;;;5007984;28;20030;-77
2020/12/24 08:46:23;;;;;;;5.30;0.93;;;;;;;;;;5006213;28;20121;-77
2020/12/24 08:48:49;;;;;;;6.70;0.90;;;;;;;;;;5006511;28;20034;-77
2020/12/24 08:51:16;;;;;;;7.60;0.82;;;;;;;;;;5007068;28;20026;-77
2020/12/24 08:53:43;;;;;;;4.68;1.08;;;;;;;;;;5007439;28;20396;-77
2020/12/24 08:56:15;;;;;;;3.63;1.02;;;;;;;;;;5006584;28;20109;-77
2020/12/24 08:58:51;;;;;;;2.88;0.70;;;;;;;;;;5007249;28;20060;-76
2020/12/24 09:01:18;;;;;;;3.28;0.60;;;;;;;;;;5007497;28;20178;-77
2020/12/24 09:03:44;;;;;;;3.33;0.90;;;;;;;;;;5005797;28;20029;-78
2020/12/24 09:06:11;;;;;;;2.85;0.70;;;;;;;;;;4998799;28;20026;-79
2020/12/24 09:08:38;;;;;;;4.20;0.90;;;;;;;;;;4990467;28;20109;-77
2020/12/24 09:11:04;;;;;;;2.40;0.80;;;;;;;;;;4991314;28;20027;-77
2020/12/24 09:13:30;;;;;;;3.25;0.90;;;;;;;;;;4991626;28;20045;-78
2020/12/24 09:15:56;;;;;;;2.80;0.82;;;;;;;;;;4990312;28;20157;-78
2020/12/24 09:18:22;;;;;;;2.53;0.70;;;;;;;;;;4989873;28;20677;-79
2020/12/24 09:20:48;;;;;;;5.72;0.90;;;;;;;;;;4991401;28;20098;-79
2020/12/24 09:23:15;;;;;;;0.30;0.30;;;;;;;;;;4991472;28;20026;-78
2020/12/24 09:25:43;;;;;;;4.78;0.90;;;;;;;;;;4990597;28;20030;-79
2020/12/24 09:28:18;;;;;;;6.80;1.10;;;;;;;;;;4989980;28;20045;-77
2020/12/24 09:30:44;;;;;;;2.40;0.70;;;;;;;;;;4990167;28;20034;-80
2020/12/24 09:33:10;;;;;;;4.45;0.70;;;;;;;;;;4989991;28;20042;-78
2020/12/24 09:35:36;;;;;;;2.92;0.80;;;;;;;;;;4989077;28;20030;-78
2020/12/24 09:38:02;;;;;;;4.20;0.95;;;;;;;;;;4990955;28;20478;-80
2020/12/24 09:40:28;;;;;;;2.83;0.90;;;;;;;;;;4991008;28;20490;-79
2020/12/24 09:42:54;;;;;;;3.60;0.65;;;;;;;;;;4990953;28;20027;-79
2020/12/24 09:45:21;;;;;;;6.13;1.15;;;;;;;;;;4990413;28;20101;-78
2020/12/24 09:47:47;;;;;;;4.30;1.10;;;;;;;;;;4990866;28;20029;-80
2020/12/24 09:50:13;;;;;;;5.18;1.05;;;;;;;;;;4991063;28;20054;-79
2020/12/24 09:52:40;;;;;;;3.72;1.00;;;;;;;;;;4990674;28;20076;-80
2020/12/24 09:55:06;;;;;;;7.28;1.38;;;;;;;;;;4990540;28;20069;-80
2020/12/24 09:57:33;;;;;;;6.55;0.70;;;;;;;;;;4990690;28;20026;-81
2020/12/24 09:59:59;;;;;;;4.18;1.20;;;;;;;;;;4989888;28;20389;-80
2020/12/24 10:02:26;;;;;;;2.85;0.90;;;;;;;;;;4989259;28;20023;-79
2020/12/24 10:04:53;;;;;;;4.20;1.10;;;;;;;;;;4990291;28;20044;-80
2020/12/24 10:07:22;;;;;;;2.47;0.70;;;;;;;;;;4991016;28;20217;-79
2020/12/24 10:09:48;;;;;;;2.97;0.70;;;;;;;;;;4990955;28;20023;-80
2020/12/24 10:12:14;;;;;;;4.78;0.93;;;;;;;;;;4989338;28;20076;-80
2020/12/24 10:14:40;;;;;;;7.22;0.98;;;;;;;;;;4990798;28;20069;-80
2020/12/24 10:17:06;;;;;;;6.25;1.00;;;;;;;;;;4991054;28;20045;-80
2020/12/24 10:19:32;;;;;;;3.00;1.02;;;;;;;;;;4989277;28;20058;-80
2020/12/24 10:21:58;;;;;;;4.15;1.00;;;;;;;;;;4991263;28;20064;-79
2020/12/24 10:24:24;;;;;;;3.58;0.80;;;;;;;;;;4990478;28;20037;-79
2020/12/24 10:26:53;;;;;;;3.53;0.85;;;;;;;;;;4990905;28;20053;-79
2020/12/24 10:29:19;;;;;;;2.25;0.70;;;;;;;;;;4991010;28;20033;-79
2020/12/24 10:31:46;;;;;;;5.38;0.95;;;;;;;;;;4990779;28;20034;-79
2020/12/24 10:34:12;;;;;;;2.15;0.80;;;;;;;;;;4990563;28;20145;-80
2020/12/24 10:36:38;;;;;;;5.13;0.90;;;;;;;;;;4988794;28;20096;-79
2020/12/24 10:39:07;;;;;;;4.68;0.88;;;;;;;;;;4990150;28;20094;-79
2020/12/24 10:41:33;;;;;;;3.95;0.98;;;;;;;;;;4990858;28;20018;-79
2020/12/24 10:43:59;;;;;;;1.00;0.50;;;;;;;;;;4990606;28;20023;-79
2020/12/24 10:46:25;;;;;;;2.85;0.80;;;;;;;;;;4991391;28;20036;-80
2020/12/24 10:48:51;;;;;;;5.35;0.90;;;;;;;;;;4991333;28;20101;-78
2020/12/24 10:51:17;;;;;;;2.40;0.70;;;;;;;;;;4989090;28;20108;-80
2020/12/24 10:53:44;;;;;;;1.20;0.60;;;;;;;;;;4991200;28;20421;-79
2020/12/24 10:56:13;;;;;;;3.95;1.00;;;;;;;;;;4990568;28;20034;-79
2020/12/24 10:58:41;;;;;;;2.35;0.68;;;;;;;;;;4989864;28;20440;-79
2020/12/24 11:01:07;;;;;;;;;;;;;;;;;;4989603;28;20651;-78
2020/12/24 11:03:33;;;;;;;2.05;0.63;;;;;;;;;;4990507;28;20423;-78
2020/12/24 11:05:59;;;;;;;2.63;0.70;;;;;;;;;;4990031;28;20050;-77
2020/12/24 11:08:25;;;;;;;1.17;0.40;;;;;;;;;;4990336;28;20034;-75
2020/12/24 11:10:51;;;;;;;1.45;0.55;;;;;;;;;;4988219;28;20102;-76
2020/12/24 11:13:17;;;;;;;2.33;0.70;;;;;;;;;;4988084;28;20041;-78
2020/12/24 11:15:43;;;;;;;1.65;0.85;;;;;;;;;;4987574;28;20038;-77
2020/12/24 11:18:09;;;;;;;2.92;0.50;;;;;;;;;;4988605;28;20026;-79
2020/12/24 11:20:35;;;;;;;2.28;0.70;;;;;;;;;;4990090;28;20097;-78
2020/12/24 11:23:01;;;;;;;2.40;0.75;;;;;;;;;;4990714;28;20110;-78
2020/12/24 11:25:27;;;;;;;1.33;0.63;;;;;;;;;;4988193;28;20030;-79
2020/12/24 11:27:53;;;;;;;1.27;0.60;;;;;;;;;;4988877;28;20104;-76
2020/12/24 11:30:19;;;;;;;1.90;0.63;;;;;;;;;;4988024;28;20066;-77
2020/12/24 11:32:45;;;;;;;3.10;0.50;;;;;;;;;;4988772;28;20030;-76
2020/12/24 11:35:11;;;;;;;4.00;1.10;;;;;;;;;;4987439;28;20033;-78
2020/12/24 11:37:38;;;;;;;6.68;3.72;;;;;;;;;;4989777;28;20018;-78
2020/12/24 11:40:04;;;;;;;2.28;0.70;;;;;;;;;;4988614;28;20029;-77
2020/12/24 11:42:33;;;;;;;2.78;0.60;;;;;;;;;;4989894;28;20030;-77
2020/12/24 11:45:00;;;;;;;1.50;0.60;;;;;;;;;;4989671;28;20181;-78
2020/12/24 11:47:26;;;;;;;2.15;0.80;;;;;;;;;;5007072;28;20065;-79
2020/12/24 11:49:52;;;;;;;3.53;0.90;;;;;;;;;;5008638;28;20481;-78
2020/12/24 11:52:18;;;;;;;3.00;0.70;;;;;;;;;;5000282;28;20461;-78
2020/12/24 11:54:44;;;;;;;2.13;0.65;;;;;;;;;;4984160;28;20517;-79
2020/12/24 11:57:11;;;;;;;2.88;0.77;;;;;;;;;;4978524;28;20373;-78
2020/12/24 11:59:37;;;;;;;3.17;0.80;;;;;;;;;;4993362;28;20500;-78
2020/12/24 12:02:04;;;;;;;2.55;0.90;;;;;;;;;;4990057;28;20109;-78
2020/12/24 12:04:30;;;;;;;3.80;0.70;;;;;;;;;;4987819;28;20113;-78
2020/12/24 12:06:56;;;;;;;2.47;0.93;;;;;;;;;;4988255;28;20030;-78
2020/12/24 12:09:22;;;;;;;1.80;0.63;;;;;;;;;;4988853;28;20022;-78
2020/12/24 12:11:48;;;;;;;3.42;0.70;;;;;;;;;;4989297;28;20412;-75
2020/12/24 12:14:14;;;;;;;2.90;0.60;;;;;;;;;;4989383;28;20477;-77
2020/12/24 12:16:40;;;;;;;1.13;0.68;;;;;;;;;;4988680;28;20030;-78
2020/12/24 12:19:06;;;;;;;2.05;0.70;;;;;;;;;;4989543;28;20023;-78
2020/12/24 12:21:34;;;;;;;2.00;0.50;;;;;;;;;;4983633;28;20051;-78
2020/12/24 12:24:00;;;;;;;1.35;0.57;;;;;;;;;;4969352;28;20037;-77
2020/12/24 12:26:26;;;;;;;3.80;0.80;;;;;;;;;;4984748;28;20038;-77
2020/12/24 12:28:52;;;;;;;3.05;0.82;;;;;;;;;;4988796;28;20030;-78
2020/12/24 12:31:23;;;;;;;2.00;0.60;;;;;;;;;;4989439;28;20074;-77
2020/12/24 12:33:50;;;;;;;2.10;0.60;;;;;;;;;;4987800;28;20037;-78
2020/12/24 12:36:18;;;;;;;4.70;0.73;;;;;;;;;;4987392;28;20034;-77
2020/12/24 12:38:45;;;;;;;1.83;0.47;;;;;;;;;;4989208;28;20037;-78
2020/12/24 12:41:12;;;;;;;1.63;0.50;;;;;;;;;;4990077;28;20023;-79
2020/12/24 12:43:38;;;;;;;2.65;0.75;;;;;;;;;;4991504;28;20037;-77
2020/12/24 12:46:04;;;;;;;2.67;0.50;;;;;;;;;;4992315;28;20022;-79
2020/12/24 12:48:30;;;;;;;1.75;0.57;;;;;;;;;;4992108;28;20097;-79
2020/12/24 12:50:56;;;;;;;2.63;0.55;;;;;;;;;;4994386;28;20034;-78
2020/12/24 12:53:22;;;;;;;1.45;0.55;;;;;;;;;;4993958;28;20397;-79
2020/12/24 12:55:48;;;;;;;1.38;0.52;;;;;;;;;;4993394;28;20061;-79
2020/12/24 12:58:14;;;;;;;4.85;0.70;;;;;;;;;;4992270;28;20490;-79
2020/12/24 13:00:40;;;;;;;1.63;0.50;;;;;;;;;;4993458;28;20571;-79
2020/12/24 13:03:06;;;;;;;2.85;0.70;;;;;;;;;;4991918;28;20019;-79
2020/12/24 13:05:33;;;;;;;1.80;0.52;;;;;;;;;;4993534;28;20109;-80
2020/12/24 13:07:59;;;;;;;0.85;0.47;;;;;;;;;;4992004;28;20084;-80
2020/12/24 13:10:25;;;;;;;6.43;1.10;;;;;;;;;;4992203;28;20420;-79
2020/12/24 13:12:51;;;;;;;1.23;0.60;;;;;;;;;;4993126;28;20094;-80
2020/12/24 13:15:17;;;;;;;1.48;0.50;;;;;;;;;;4993334;28;20112;-80
2020/12/24 13:17:43;;;;;;;1.85;0.70;;;;;;;;;;4992574;28;20073;-80
2020/12/24 13:20:09;;;;;;;2.28;0.50;;;;;;;;;;4992221;28;20374;-80
2020/12/24 13:22:35;;;;;;;1.13;0.50;;;;;;;;;;4992733;28;20025;-80
2020/12/24 13:25:01;;;;;;;0.68;0.38;;;;;;;;;;4991846;28;20037;-79
2020/12/24 13:27:28;;;;;;;1.65;0.55;;;;;;;;;;4993650;28;20481;-80
2020/12/24 13:29:54;;;;;;;1.27;0.60;;;;;;;;;;5013438;28;20033;-79
2020/12/24 13:32:20;;;;;;;1.00;0.47;;;;;;;;;;5012709;28;20033;-80
2020/12/24 13:34:46;;;;;;;1.60;0.70;;;;;;;;;;5012432;28;20022;-80
2020/12/24 13:37:12;;;;;;;3.53;0.82;;;;;;;;;;4995811;28;20393;-80
2020/12/24 13:39:38;;;;;;;1.15;0.45;;;;;;;;;;5012300;28;20026;-80
2020/12/24 13:42:04;;;;;;;2.15;0.60;;;;;;;;;;5001671;28;20030;-79
2020/12/24 13:44:30;;;;;;;1.58;0.77;;;;;;;;;;4994738;28;20037;-80
2020/12/24 13:46:56;;;;;;;1.33;0.60;;;;;;;;;;4992218;28;20030;-81
2020/12/24 13:49:23;;;;;;;0.98;0.50;;;;;;;;;;4993530;28;20485;-81
2020/12/24 13:51:50;;;;;;;;;;;;;;;;;;4994335;28;20070;-81
2020/12/24 13:54:16;;;;;;;1.95;0.50;;;;;;;;;;4990409;28;19909;-80
2020/12/24 13:56:48;;;;;;;2.97;0.68;;;;;;;;;;4993209;28;20484;-81
2020/12/24 13:59:14;;;;;;;3.72;1.63;;;;;;;;;;4993733;28;20033;-80
2020/12/24 14:01:40;;;;;;;4.45;1.65;;;;;;;;;;4991135;28;20030;-79
2020/12/24 14:04:06;;;;;;;1.23;0.50;;;;;;;;;;4990013;28;20026;-80
2020/12/24 14:06:32;;;;;;;1.00;0.60;;;;;;;;;;4994071;28;20026;-80
2020/12/24 14:08:58;;;;;;;2.38;0.90;;;;;;;;;;4993093;28;20520;-81
2020/12/24 14:11:24;;;;;;;2.00;1.02;;;;;;;;;;4993059;28;20035;-80
2020/12/24 14:13:50;;;;;;;3.58;1.08;;;;;;;;;;4992888;28;20037;-82
2020/12/24 14:16:17;;;;;;;0.68;0.60;;;;;;;;;;4993058;28;20030;-81
2020/12/24 14:18:43;;;;;;;1.90;0.60;;;;;;;;;;4994342;28;20478;-80
2020/12/24 14:21:09;;;;;;;2.65;0.73;;;;;;;;;;4992522;28;20114;-79
2020/12/24 14:23:36;;;;;;;3.50;0.70;;;;;;;;;;4993672;28;20505;-80
2020/12/24 14:26:02;;;;;;;1.10;0.55;;;;;;;;;;4993546;28;20488;-81
2020/12/24 14:28:28;;;;;;;2.15;0.90;;;;;;;;;;4993862;28;20164;-81
2020/12/24 14:30:54;;;;;;;1.55;0.77;;;;;;;;;;4993269;28;20509;-79
2020/12/24 14:33:20;;;;;;;2.65;1.00;;;;;;;;;;4993531;28;20084;-81
2020/12/24 14:35:46;;;;;;;4.30;1.50;;;;;;;;;;4993638;28;20034;-81
2020/12/24 14:38:15;;;;;;;13.30;8.00;;;;;;;;;;4996389;28;20022;-81
2020/12/24 14:40:42;;;;;;;4.50;2.70;;;;;;;;;;4994096;28;20027;-81
2020/12/24 14:43:08;;;;;;;4.32;1.58;;;;;;;;;;4976709;28;20039;-80
2020/12/24 14:45:34;;;;;;;1.90;0.93;;;;;;;;;;4974156;28;20043;-79
2020/12/24 14:48:00;;;;;;;2.65;1.10;;;;;;;;;;4974746;28;20984;-81
2020/12/24 14:50:26;;;;;;;28.23;16.80;;;;;;;;;;4975769;28;20446;-80
2020/12/24 14:52:53;;;;;;;13.45;8.48;;;;;;;;;;4976451;28;20092;-80
2020/12/24 14:55:20;;;;;;;5.30;3.40;;;;;;;;;;4973512;28;20034;-79